createdAt,value
2022-08-22T00:03:01.919Z,677.33333
2022-08-22T00:08:17.065Z,417.84615
2022-08-22T00:13:18.525Z,403.70149
2022-08-22T00:18:20.082Z,390.37681
2022-08-22T00:23:21.868Z,390.37681
2022-08-22T00:28:23.405Z,354.66667
2022-08-22T00:33:24.947Z,349.26316
2022-08-22T00:38:26.601Z,302.13953
2022-08-22T00:43:28.031Z,315.08434
2022-08-22T00:48:29.794Z,317.33333
2022-08-22T00:53:31.462Z,326.6087
2022-08-22T00:58:33.102Z,319.60976
2022-08-22T01:03:34.858Z,326.6087
2022-08-22T01:08:36.843Z,324.24691
2022-08-22T01:13:38.748Z,326.6087
2022-08-22T01:18:40.465Z,331.42138
2022-08-22T01:23:42.339Z,336.35669
2022-08-22T01:28:44.099Z,344
2022-08-22T01:33:47.684Z,346.61438
2022-08-22T01:38:49.722Z,351.94702
2022-08-22T01:43:59.799Z,360.21622
2022-08-22T01:49:02.747Z,363.04762
2022-08-22T01:54:04.436Z,371.77778
2022-08-22T01:59:05.924Z,380.87943
2022-08-22T02:04:12.623Z,393.63504
2022-08-22T02:09:15.498Z,407.15789
2022-08-22T02:14:17.602Z,403.70149
2022-08-22T02:19:19.541Z,390.37681
2022-08-22T02:24:21.188Z,396.94118
2022-08-22T02:29:22.744Z,400.2963
2022-08-22T02:34:24.610Z,407.15789
2022-08-22T02:39:26.666Z,410.66667
2022-08-22T02:44:28.490Z,410.66667
2022-08-22T02:49:30.112Z,410.66667
2022-08-22T02:54:31.880Z,410.66667
2022-08-22T02:59:33.508Z,400.2963
2022-08-22T03:04:35.206Z,384
2022-08-22T03:09:37.603Z,374.76923
2022-08-22T03:14:39.295Z,374.76923
2022-08-22T03:19:40.963Z,363.04762
2022-08-22T03:24:42.767Z,360.21622
2022-08-22T03:29:44.904Z,365.91781
2022-08-22T03:34:48.175Z,377.80282
2022-08-22T03:39:50.319Z,387.16547
2022-08-22T03:44:52.269Z,396.94118
2022-08-22T03:49:59.218Z,403.70149
2022-08-22T03:55:01.563Z,414.22901
2022-08-22T04:00:03.245Z,421.51938
2022-08-22T04:05:04.952Z,432.88889
2022-08-22T04:10:09.504Z,440.77419
2022-08-22T04:15:10.953Z,448.91803
2022-08-22T04:20:12.500Z,448.91803
2022-08-22T04:25:18.240Z,457.33333
2022-08-22T04:30:19.746Z,448.91803
2022-08-22T04:35:21.188Z,444.81301
2022-08-22T04:40:23.247Z,448.91803
2022-08-22T04:45:24.709Z,440.77419
2022-08-22T04:50:26.195Z,448.91803
2022-08-22T04:55:27.931Z,453.09091
2022-08-22T05:00:29.402Z,457.33333
2022-08-22T05:05:30.938Z,448.91803
2022-08-22T05:10:32.703Z,461.64706
2022-08-22T05:15:34.597Z,466.0339
2022-08-22T05:20:36.098Z,470.49573
2022-08-22T05:25:37.700Z,470.49573
2022-08-22T05:30:40.315Z,466.0339
2022-08-22T05:35:43.960Z,470.49573
2022-08-22T05:40:49.225Z,484.35088
2022-08-22T05:45:51.229Z,519.70093
2022-08-22T05:50:53.013Z,525.13208
2022-08-22T05:55:54.652Z,525.13208
2022-08-22T06:00:56.421Z,536.30769
2022-08-22T06:05:57.825Z,560
2022-08-22T06:10:59.637Z,536.30769
2022-08-22T06:16:01.802Z,560
2022-08-22T06:21:03.625Z,606.36559
2022-08-22T06:26:05.227Z,592.42105
2022-08-22T06:31:06.792Z,613.56522
2022-08-22T06:36:08.279Z,599.31915
2022-08-22T06:41:09.926Z,572.57143
2022-08-22T06:46:11.375Z,547.92157
2022-08-22T06:51:13.338Z,553.90099
2022-08-22T06:56:14.869Z,566.22222
2022-08-22T07:01:16.510Z,579.05155
2022-08-22T07:06:18.013Z,566.22222
2022-08-22T07:11:19.766Z,579.05155
2022-08-22T07:16:21.638Z,579.05155
2022-08-22T07:21:23.507Z,613.56522
2022-08-22T07:26:25.280Z,613.56522
2022-08-22T07:31:27.116Z,677.33333
2022-08-22T07:36:32.439Z,744
2022-08-22T07:41:34.516Z,765.33333
2022-08-22T07:46:38.452Z,744
2022-08-22T07:51:40.233Z,754.52632
2022-08-22T07:56:42.357Z,776.43243
2022-08-22T08:01:43.821Z,765.33333
2022-08-22T08:06:45.754Z,776.43243
2022-08-22T08:11:47.763Z,799.55556
2022-08-22T08:16:49.855Z,754.52632
2022-08-22T08:21:51.607Z,799.55556
2022-08-22T08:26:53.414Z,787.83562
2022-08-22T08:31:55.300Z,787.83562
2022-08-22T08:36:57.384Z,811.60563
2022-08-22T08:42:00.275Z,836.75362
2022-08-22T08:47:02.150Z,849.88235
2022-08-22T08:52:04.248Z,824
2022-08-22T08:57:06.330Z,849.88235
2022-08-22T09:02:08.108Z,863.40299
2022-08-22T09:07:15.598Z,877.33333
2022-08-22T09:12:17.984Z,891.69231
2022-08-22T09:17:21.173Z,877.33333
2022-08-22T09:22:23.110Z,937.54839
2022-08-22T09:27:25.273Z,891.69231
2022-08-22T09:32:27.029Z,877.33333
2022-08-22T09:37:28.921Z,891.69231
2022-08-22T09:42:31.935Z,921.77778
2022-08-22T09:47:33.838Z,921.77778
2022-08-22T09:52:35.896Z,970.66667
2022-08-22T09:57:37.834Z,953.83607
2022-08-22T10:02:43.693Z,937.54839
2022-08-22T10:07:45.545Z,988.0678
2022-08-22T10:12:53.402Z,953.83607
2022-08-22T10:17:54.824Z,988.0678
2022-08-22T10:22:57.992Z,1084.74074
2022-08-22T10:27:59.966Z,1106.26415
2022-08-22T10:33:02.615Z,1044
2022-08-22T10:38:04.399Z,1084.74074
2022-08-22T10:43:06.273Z,1064
2022-08-22T10:48:10.870Z,1106.26415
2022-08-22T10:53:12.775Z,1128.61538
2022-08-22T10:58:14.418Z,1176
2022-08-22T11:03:21.308Z,1006.06897
2022-08-22T11:08:25.547Z,1084.74074
2022-08-22T11:13:30.168Z,1044
2022-08-22T11:18:31.802Z,1084.74074
2022-08-22T11:23:33.835Z,1106.26415
2022-08-22T11:28:35.953Z,1084.74074
2022-08-22T11:33:47.117Z,1201.14286
2022-08-22T11:38:49.578Z,1176
2022-08-22T11:43:52.926Z,1176
2022-08-22T11:48:54.872Z,1128.61538
2022-08-22T11:53:56.877Z,1254.6383
2022-08-22T11:58:59.193Z,1227.33333
2022-08-22T12:04:03.392Z,1254.6383
2022-08-22T12:09:05.473Z,1283.13043
2022-08-22T12:14:07.438Z,1176
2022-08-22T12:19:09.453Z,1176
2022-08-22T12:24:20.838Z,1254.6383
2022-08-22T12:29:33.391Z,1176
2022-08-22T12:34:35.347Z,1227.33333
2022-08-22T12:39:37.600Z,1254.6383
2022-08-22T12:44:43.356Z,1227.33333
2022-08-22T12:49:50.003Z,1176
2022-08-22T12:54:54.239Z,1283.13043
2022-08-22T12:59:55.734Z,1283.13043
2022-08-22T13:05:00.064Z,1201.14286
2022-08-22T13:10:03.196Z,1201.14286
2022-08-22T13:15:05.863Z,1201.14286
2022-08-22T13:20:12.335Z,1254.6383
2022-08-22T13:25:13.891Z,1283.13043
2022-08-22T13:30:15.576Z,1227.33333
2022-08-22T13:35:17.054Z,1283.13043
2022-08-22T13:40:25.796Z,1176
2022-08-22T13:45:27.896Z,1227.33333
2022-08-22T13:50:35.785Z,1254.6383
2022-08-22T13:55:54.763Z,1344
2022-08-22T14:00:58.238Z,1344
2022-08-22T14:06:26.593Z,1312.88889
2022-08-22T14:11:37.255Z,1283.13043
2022-08-22T14:16:40.218Z,1254.6383
2022-08-22T14:21:41.934Z,1151.84314
2022-08-22T14:26:47.760Z,1201.14286
2022-08-22T14:31:49.965Z,1227.33333
2022-08-22T14:36:51.719Z,1254.6383
2022-08-22T14:41:56.499Z,1176
2022-08-22T14:47:00.582Z,1201.14286
2022-08-22T14:52:02.621Z,1201.14286
2022-08-22T14:57:04.500Z,1201.14286
2022-08-22T15:02:12.272Z,1201.14286
2022-08-22T15:07:13.932Z,1128.61538
2022-08-22T15:12:15.451Z,1106.26415
2022-08-22T15:17:18.208Z,1064
2022-08-22T15:22:19.994Z,1064
2022-08-22T15:27:21.565Z,1151.84314
2022-08-22T15:32:23.468Z,1064
2022-08-22T15:37:28.504Z,953.83607
2022-08-22T15:42:29.943Z,836.75362
2022-08-22T15:47:34.845Z,877.33333
2022-08-22T15:52:37.623Z,836.75362
2022-08-22T15:57:39.537Z,754.52632
2022-08-22T16:02:41.573Z,765.33333
2022-08-22T16:07:43.363Z,744
2022-08-22T16:12:45.334Z,733.74359
2022-08-22T16:17:53.315Z,776.43243
2022-08-22T16:22:55.574Z,863.40299
2022-08-22T16:27:57.559Z,824
2022-08-22T16:32:59.451Z,877.33333
2022-08-22T16:38:01.438Z,824
2022-08-22T16:43:03.286Z,686.16867
2022-08-22T16:48:05.620Z,686.16867
2022-08-22T16:53:07.651Z,660.27907
2022-08-22T16:58:09.426Z,660.27907
2022-08-22T17:03:11.598Z,660.27907
2022-08-22T17:08:13.201Z,686.16867
2022-08-22T17:13:14.654Z,660.27907
2022-08-22T17:18:16.618Z,652.04598
2022-08-22T17:23:18.050Z,628.44444
2022-08-22T17:28:19.710Z,599.31915
2022-08-22T17:33:23.476Z,566.22222
2022-08-22T17:38:29.886Z,530.66667
2022-08-22T17:43:33.513Z,509.13761
2022-08-22T17:48:51.321Z,475.03448
2022-08-22T17:53:52.757Z,444.81301
2022-08-22T17:58:54.217Z,371.77778
2022-08-22T18:03:56.059Z,410.66667
2022-08-22T18:09:13.778Z,425.25
2022-08-22T18:14:15.945Z,390.37681
2022-08-22T18:19:17.904Z,396.94118
2022-08-22T18:24:19.384Z,400.2963
2022-08-22T18:29:21.130Z,414.22901
2022-08-22T18:34:23.199Z,414.22901
2022-08-22T18:39:25.232Z,453.09091
2022-08-22T18:44:26.777Z,466.0339
2022-08-22T18:49:28.884Z,448.91803
2022-08-22T18:54:30.470Z,475.03448
2022-08-22T18:59:32.109Z,466.0339
2022-08-22T19:04:33.934Z,444.81301
2022-08-22T19:09:35.693Z,425.25
2022-08-22T19:14:37.480Z,432.88889
2022-08-22T19:19:39.468Z,436.8
2022-08-22T19:24:41.276Z,457.33333
2022-08-22T19:29:43.039Z,448.91803
2022-08-22T19:34:47.145Z,403.70149
2022-08-22T19:39:49.533Z,407.15789
2022-08-22T19:44:56.207Z,396.94118
2022-08-22T19:49:58.609Z,414.22901
2022-08-22T19:55:01.463Z,484.35088
2022-08-22T20:00:03.230Z,553.90099
2022-08-22T20:05:05.347Z,530.66667
2022-08-22T20:10:07.139Z,509.13761
2022-08-22T20:15:08.942Z,525.13208
2022-08-22T20:20:19.081Z,547.92157
2022-08-22T20:25:42.408Z,542.05825
2022-08-22T20:30:45.032Z,547.92157
2022-08-22T20:35:46.701Z,628.44444
2022-08-22T20:40:56.554Z,585.66667
2022-08-22T20:45:59.579Z,585.66667
2022-08-22T20:51:02.183Z,572.57143
2022-08-22T20:56:03.952Z,606.36559
2022-08-22T21:01:05.740Z,660.27907
2022-08-22T21:06:07.600Z,660.27907
2022-08-22T21:11:09.703Z,714
2022-08-22T21:16:11.677Z,704.49383
2022-08-22T21:21:17.287Z,754.52632
2022-08-22T21:26:19.683Z,877.33333
2022-08-22T21:31:21.363Z,953.83607
2022-08-22T21:36:23.296Z,877.33333
2022-08-22T21:41:24.906Z,863.40299
2022-08-22T21:46:26.857Z,877.33333
2022-08-22T21:51:28.837Z,811.60563
2022-08-22T21:56:30.510Z,849.88235
2022-08-22T22:01:32.192Z,799.55556
2022-08-22T22:06:34.099Z,787.83562
2022-08-22T22:11:35.776Z,799.55556
2022-08-22T22:16:37.555Z,787.83562
2022-08-22T22:21:39.473Z,765.33333
2022-08-22T22:26:41.480Z,776.43243
2022-08-22T22:31:43.144Z,714
2022-08-22T22:36:45.005Z,704.49383
2022-08-22T22:41:46.798Z,733.74359
2022-08-22T22:46:48.583Z,723.74684
2022-08-22T22:51:50.693Z,744
2022-08-22T22:56:52.432Z,744
2022-08-22T23:01:54.300Z,744
2022-08-22T23:06:56.069Z,754.52632
2022-08-22T23:11:57.846Z,754.52632
2022-08-22T23:16:59.739Z,765.33333
2022-08-22T23:22:01.340Z,765.33333
2022-08-22T23:27:03.964Z,754.52632
2022-08-22T23:32:05.710Z,776.43243
2022-08-22T23:37:07.751Z,765.33333
2022-08-22T23:42:09.517Z,765.33333
2022-08-22T23:47:11.363Z,776.43243
2022-08-22T23:52:13.462Z,754.52632
2022-08-22T23:57:15.337Z,754.52632
